Hood River, Oregon
Current Conditions -  °F | °C
As of 7:39 PM on Saturday 25 Oct 2014 (Local Time) from K4S2 Reporting Station
Moderate Rain Moderate Rain  
Wind Chill: 55°   Ceiling: 5000
Heat Index: 55°   Visibility: 10mi
Dew Point: 48°   Wind: 3mph
Humidity: 77%   Direction: 260°W
Pressure: 29.63"   Gusts: 23mph
Location:  45.71°N, 121.52°W
Report Text: K4S2 260239Z AUTO 26003G20KT 10SM RA SCT046 BKN050 OVC070 13/09 A2963 RMK AO2 P0001 SLP047 T01300090
Loading
Personal Weather Stations






























Interactive Weather Map New forecast layout! Learn more

10-Day Weather Forecast

Advertisements
Track Severe Weather on mobile